Time;durP1;ratioP1;P1;durP2;ratioP2;P2;SDS_P1;SDS_P2;PMS_P1;PMS_P2;Temp;Humidity;BMP_temperature;BMP_pressure;BME280_temperature;BME280_humidity;BME280_pressure;Samples;Min_cycle;Max_cycle;Signal;HPM_P1;HPM_P2
2023/02/05 00:01:30;;;;;;;0.40;0.40;;;3.30;99.90;;;;;;5076868;28;20786;-87
2023/02/05 00:03:57;;;;;;;0.83;0.83;;;3.30;99.90;;;;;;5076921;28;20481;-87
2023/02/05 00:06:23;;;;;;;0.90;0.83;;;3.30;99.90;;;;;;5076794;28;20470;-87
2023/02/05 00:08:50;;;;;;;0.67;0.40;;;3.30;99.90;;;;;;5076626;28;20825;-86
2023/02/05 00:11:17;;;;;;;0.93;0.63;;;3.30;99.90;;;;;;5076828;28;20454;-86
2023/02/05 00:13:45;;;;;;;2.10;0.43;;;3.30;99.90;;;;;;5076405;28;20436;-86
2023/02/05 00:16:14;;;;;;;2.00;1.27;;;3.40;99.90;;;;;;5076672;28;20482;-87
2023/02/05 00:18:40;;;;;;;2.97;0.70;;;3.40;99.90;;;;;;5076249;28;20456;-87
2023/02/05 00:21:08;;;;;;;0.67;0.67;;;3.40;99.90;;;;;;5076530;28;20445;-86
2023/02/05 00:23:35;;;;;;;1.83;0.60;;;3.50;99.90;;;;;;5076393;28;20477;-87
2023/02/05 00:26:02;;;;;;;0.40;0.40;;;3.50;99.90;;;;;;5076363;28;20465;-87
2023/02/05 00:28:31;;;;;;;0.40;0.40;;;3.50;99.90;;;;;;5076647;28;20473;-86
2023/02/05 00:31:00;;;;;;;0.30;0.30;;;3.50;99.90;;;;;;5076315;28;20460;-86
2023/02/05 00:33:27;;;;;;;3.27;1.33;;;3.50;99.90;;;;;;5076356;28;20445;-87
2023/02/05 00:35:53;;;;;;;0.67;0.67;;;3.50;99.90;;;;;;5076109;28;20485;-86
2023/02/05 00:38:20;;;;;;;1.00;0.90;;;3.40;99.90;;;;;;5076305;28;20463;-87
2023/02/05 00:40:47;;;;;;;1.17;0.80;;;3.40;99.90;;;;;;5076191;28;20446;-86
2023/02/05 00:43:13;;;;;;;1.43;0.60;;;3.40;99.90;;;;;;5076130;28;20489;-87
2023/02/05 00:45:40;;;;;;;0.60;0.60;;;3.50;99.90;;;;;;5075854;28;20462;-87
2023/02/05 00:48:08;;;;;;;1.10;0.80;;;3.50;99.90;;;;;;5076125;28;20452;-87
2023/02/05 00:50:35;;;;;;;0.63;0.63;;;3.50;99.90;;;;;;5076117;28;20453;-87
2023/02/05 00:53:03;;;;;;;0.40;0.40;;;3.50;99.90;;;;;;5075986;28;20438;-87
2023/02/05 00:55:30;;;;;;;0.73;0.73;;;3.50;99.90;;;;;;5075619;28;20441;-87
2023/02/05 00:57:57;;;;;;;0.60;0.60;;;3.50;99.90;;;;;;5075848;28;20445;-87
2023/02/05 01:00:25;;;;;;;0.40;0.40;;;3.50;99.90;;;;;;5075812;28;20446;-87
2023/02/05 01:02:52;;;;;;;0.60;0.60;;;3.40;99.90;;;;;;5075243;28;20579;-87
2023/02/05 01:05:20;;;;;;;0.30;0.30;;;3.40;99.90;;;;;;5075411;28;20975;-87
2023/02/05 01:07:47;;;;;;;0.40;0.30;;;3.40;99.90;;;;;;5075688;28;20937;-87
2023/02/05 01:10:14;;;;;;;0.30;0.30;;;3.30;99.90;;;;;;5075624;28;20461;-87
2023/02/05 01:12:40;;;;;;;0.73;0.73;;;3.30;99.90;;;;;;5075605;28;20449;-87
2023/02/05 01:15:09;;;;;;;0.30;0.20;;;3.20;99.90;;;;;;5075596;28;20445;-87
2023/02/05 01:17:35;;;;;;;0.90;0.50;;;3.20;99.90;;;;;;5075412;28;20473;-87
2023/02/05 01:20:02;;;;;;;0.30;0.30;;;3.20;99.90;;;;;;5075609;28;20446;-86
2023/02/05 01:22:31;;;;;;;0.30;0.30;;;3.20;99.90;;;;;;5074980;28;20968;-87
2023/02/05 01:24:57;;;;;;;0.37;0.30;;;3.20;99.90;;;;;;5075217;28;20481;-87
2023/02/05 01:27:24;;;;;;;0.77;0.40;;;3.10;99.90;;;;;;5075372;28;20473;-87
2023/02/05 01:29:51;;;;;;;1.70;0.70;;;3.10;99.90;;;;;;5075313;28;20804;-82
2023/02/05 01:32:18;;;;;;;0.90;0.90;;;3.00;99.90;;;;;;5074632;28;20524;-81
2023/02/05 01:34:45;;;;;;;0.30;0.20;;;3.00;99.90;;;;;;5074406;28;20452;-81
2023/02/05 01:37:12;;;;;;;2.30;0.50;;;2.90;99.90;;;;;;5074135;28;21016;-81
2023/02/05 01:39:40;;;;;;;2.03;0.47;;;2.90;99.90;;;;;;5074477;28;20457;-80
2023/02/05 01:42:17;;;;;;;0.60;0.60;;;2.90;99.90;;;;;;5074464;28;20769;-80
2023/02/05 01:44:43;;;;;;;0.63;0.63;;;2.90;99.90;;;;;;5074046;28;20477;-80
2023/02/05 01:47:10;;;;;;;0.37;0.37;;;2.90;99.90;;;;;;5074265;28;20468;-80
2023/02/05 01:49:41;;;;;;;0.40;0.40;;;2.80;99.90;;;;;;5074283;28;20441;-80
2023/02/05 01:52:11;;;;;;;1.57;0.70;;;2.80;99.90;;;;;;5074298;28;20437;-80
2023/02/05 01:54:44;;;;;;;0.60;0.50;;;2.80;99.90;;;;;;5073996;28;20790;-80
2023/02/05 01:57:18;;;;;;;0.83;0.83;;;2.80;99.90;;;;;;5074104;28;20465;-80
2023/02/05 01:59:45;;;;;;;0.87;0.87;;;2.80;99.90;;;;;;5074132;28;20437;-80
2023/02/05 02:02:12;;;;;;;1.43;0.77;;;2.80;99.90;;;;;;5074041;28;20445;-80
2023/02/05 02:04:42;;;;;;;1.33;0.60;;;2.80;99.90;;;;;;5073592;28;21015;-81
2023/02/05 02:07:12;;;;;;;1.27;0.40;;;2.80;99.90;;;;;;5073863;28;20474;-80
2023/02/05 02:09:43;;;;;;;0.30;0.30;;;2.80;99.90;;;;;;5073898;28;20481;-80
2023/02/05 02:12:11;;;;;;;0.40;0.30;;;2.80;99.90;;;;;;5073904;28;20430;-80
2023/02/05 02:14:40;;;;;;;0.30;0.30;;;2.70;99.90;;;;;;5072961;28;20499;-80
2023/02/05 02:17:08;;;;;;;0.30;0.30;;;2.80;99.90;;;;;;5073712;28;20470;-80
2023/02/05 02:19:42;;;;;;;0.30;0.30;;;2.80;99.90;;;;;;5073447;28;20445;-80
2023/02/05 02:22:25;;;;;;;0.40;0.40;;;2.80;99.90;;;;;;5073802;28;20430;-80
2023/02/05 02:25:04;;;;;;;1.60;0.73;;;2.90;99.90;;;;;;5073334;28;20855;-80
2023/02/05 02:27:43;;;;;;;0.50;0.40;;;3.00;99.90;;;;;;5073495;28;20477;-80
2023/02/05 02:30:16;;;;;;;0.53;0.50;;;3.00;99.90;;;;;;5074486;28;20436;-80
2023/02/05 02:32:49;;;;;;;0.47;0.30;;;3.10;99.90;;;;;;5073648;28;20777;-80
2023/02/05 02:35:23;;;;;;;0.30;0.30;;;3.10;99.90;;;;;;5073206;28;20485;-80
2023/02/05 02:37:56;;;;;;;0.30;0.30;;;3.20;99.90;;;;;;5073211;28;20945;-80
2023/02/05 02:40:29;;;;;;;0.50;0.50;;;3.20;99.90;;;;;;5073599;28;20434;-81
2023/02/05 02:43:05;;;;;;;0.40;0.37;;;3.20;99.90;;;;;;5073524;28;20434;-81
2023/02/05 02:45:34;;;;;;;0.43;0.43;;;3.20;99.90;;;;;;5073378;28;20476;-81
2023/02/05 02:48:04;;;;;;;0.40;0.40;;;3.30;99.90;;;;;;5073249;28;20429;-81
2023/02/05 02:50:34;;;;;;;4.00;0.50;;;3.30;99.90;;;;;;5073383;28;20450;-80
2023/02/05 02:53:04;;;;;;;0.60;0.60;;;3.30;99.90;;;;;;5073140;28;20441;-80
2023/02/05 02:55:36;;;;;;;0.60;0.60;;;3.30;99.90;;;;;;5073318;28;20425;-80
2023/02/05 02:58:08;;;;;;;0.30;0.30;;;3.30;99.90;;;;;;5073118;28;20836;-80
2023/02/05 03:00:39;;;;;;;0.60;0.53;;;3.30;99.90;;;;;;5073290;28;20429;-80
2023/02/05 03:03:10;;;;;;;5.80;0.60;;;3.20;99.90;;;;;;5073366;28;20434;-80
2023/02/05 03:05:38;;;;;;;0.60;0.40;;;3.20;99.90;;;;;;5073288;28;20480;-80
2023/02/05 03:08:10;;;;;;;0.70;0.70;;;3.20;99.90;;;;;;5073506;28;20441;-80
2023/02/05 03:10:41;;;;;;;0.40;0.40;;;3.20;99.90;;;;;;5073213;28;20437;-80
2023/02/05 03:13:10;;;;;;;0.40;0.40;;;3.20;99.90;;;;;;5073172;28;20437;-80
2023/02/05 03:15:38;;;;;;;0.40;0.30;;;3.10;99.90;;;;;;5072835;28;21001;-80
2023/02/05 03:18:05;;;;;;;0.40;0.40;;;3.20;99.90;;;;;;5073200;28;20446;-80
2023/02/05 03:20:38;;;;;;;0.60;0.60;;;3.20;99.90;;;;;;5072778;28;20950;-80
2023/02/05 03:23:04;;;;;;;0.40;0.40;;;3.10;99.90;;;;;;5073166;28;20438;-81
2023/02/05 03:25:31;;;;;;;0.97;0.30;;;3.10;99.90;;;;;;5073165;28;20485;-81
2023/02/05 03:27:58;;;;;;;0.33;0.33;;;3.00;99.90;;;;;;5077044;28;20449;-80
2023/02/05 03:30:34;;;;;;;0.30;0.30;;;3.00;99.90;;;;;;5076977;28;20449;-80
2023/02/05 03:33:12;;;;;;;0.60;0.60;;;3.00;99.90;;;;;;5076952;28;20788;-80
2023/02/05 03:35:44;;;;;;;0.70;0.70;;;2.90;99.90;;;;;;5076542;28;20485;-80
2023/02/05 03:38:28;;;;;;;5.60;0.90;;;2.90;99.90;;;;;;5076512;28;20800;-80
2023/02/05 03:41:03;;;;;;;0.30;0.30;;;2.90;99.90;;;;;;5076823;28;20438;-80
2023/02/05 03:43:46;;;;;;;1.63;1.07;;;2.80;99.90;;;;;;5076774;28;20416;-80
2023/02/05 03:46:19;;;;;;;0.60;0.60;;;2.80;99.90;;;;;;5076305;28;20468;-81
2023/02/05 03:49:00;;;;;;;0.70;0.53;;;2.80;99.90;;;;;;5076643;28;20437;-80
2023/02/05 03:51:35;;;;;;;0.60;0.60;;;2.80;99.90;;;;;;5076301;28;20433;-80
2023/02/05 03:54:09;;;;;;;0.53;0.50;;;2.70;99.90;;;;;;5076562;28;20432;-80
2023/02/05 03:56:44;;;;;;;0.50;0.40;;;2.60;99.90;;;;;;5076395;28;20469;-80
2023/02/05 03:59:12;;;;;;;0.97;0.97;;;2.50;99.90;;;;;;5076449;28;20436;-81
2023/02/05 04:01:40;;;;;;;0.67;0.67;;;2.50;99.90;;;;;;5076349;28;20473;-80
2023/02/05 04:04:07;;;;;;;2.07;0.70;;;2.50;99.90;;;;;;5075936;28;20985;-81
2023/02/05 04:06:34;;;;;;;0.40;0.40;;;2.50;99.90;;;;;;5076236;28;20484;-80
2023/02/05 04:09:01;;;;;;;0.50;0.50;;;2.40;99.90;;;;;;5075911;28;20449;-81
2023/02/05 04:11:27;;;;;;;0.30;0.30;;;2.40;99.90;;;;;;5076186;28;20454;-81
2023/02/05 04:13:54;;;;;;;0.50;0.50;;;2.40;99.90;;;;;;5076152;28;20528;-81
2023/02/05 04:16:21;;;;;;;0.70;0.37;;;2.30;99.90;;;;;;5075735;28;20976;-80
2023/02/05 04:18:49;;;;;;;0.63;0.63;;;2.20;99.90;;;;;;5076075;28;20445;-80
2023/02/05 04:21:15;;;;;;;0.40;0.30;;;2.20;99.90;;;;;;5076035;28;20449;-80
2023/02/05 04:23:42;;;;;;;0.60;0.50;;;2.10;99.90;;;;;;5076801;28;20476;-80
2023/02/05 04:26:09;;;;;;;0.80;0.40;;;2.10;99.90;;;;;;5075533;28;21019;-80
2023/02/05 04:28:36;;;;;;;6.00;1.57;;;2.10;99.90;;;;;;5075911;28;20441;-80
2023/02/05 04:31:06;;;;;;;1.30;0.40;;;2.00;99.90;;;;;;5075852;28;20472;-80
2023/02/05 04:33:33;;;;;;;0.97;0.53;;;2.00;99.90;;;;;;5075726;28;20838;-80
2023/02/05 04:36:01;;;;;;;1.37;0.77;;;2.00;99.90;;;;;;5075237;28;20980;-80
2023/02/05 04:38:28;;;;;;;0.30;0.30;;;1.90;99.90;;;;;;5075197;28;20847;-80
2023/02/05 04:40:55;;;;;;;0.30;0.30;;;1.90;99.90;;;;;;5075676;28;20445;-80
2023/02/05 04:43:22;;;;;;;0.40;0.40;;;1.90;99.90;;;;;;5075635;28;20453;-80
2023/02/05 04:45:49;;;;;;;0.37;0.33;;;1.90;99.90;;;;;;5075884;28;20491;-80
2023/02/05 04:48:15;;;;;;;0.30;0.30;;;1.90;99.90;;;;;;5075550;28;20453;-81
2023/02/05 04:50:42;;;;;;;2.20;1.17;;;1.90;99.90;;;;;;5075450;28;20460;-80
2023/02/05 04:53:10;;;;;;;0.40;0.40;;;1.90;99.90;;;;;;5075488;28;20445;-80
2023/02/05 04:55:37;;;;;;;0.43;0.43;;;1.80;99.90;;;;;;5075072;28;20991;-80
2023/02/05 04:58:04;;;;;;;0.47;0.47;;;1.80;99.90;;;;;;5075337;28;20453;-81
2023/02/05 05:00:30;;;;;;;0.60;0.50;;;1.90;99.90;;;;;;5075342;28;20457;-80
2023/02/05 05:02:58;;;;;;;0.40;0.40;;;1.80;99.90;;;;;;5074986;28;20442;-81
2023/02/05 05:05:24;;;;;;;0.57;0.50;;;1.90;99.90;;;;;;5074742;28;20481;-81
2023/02/05 05:07:51;;;;;;;2.30;2.10;;;1.90;99.90;;;;;;5074880;28;20477;-80
2023/02/05 05:10:19;;;;;;;0.30;0.30;;;2.00;99.90;;;;;;5074828;28;20449;-80
2023/02/05 05:12:46;;;;;;;0.37;0.37;;;2.00;99.90;;;;;;5075106;28;20464;-81
2023/02/05 05:15:13;;;;;;;1.33;0.90;;;2.00;99.90;;;;;;5075001;28;20446;-81
2023/02/05 05:17:39;;;;;;;0.60;0.60;;;2.00;99.90;;;;;;5074711;28;20452;-81
2023/02/05 05:20:07;;;;;;;0.30;0.30;;;2.00;99.90;;;;;;5074937;28;20456;-81
2023/02/05 05:22:34;;;;;;;0.50;0.50;;;2.00;99.90;;;;;;5074856;28;20453;-81
2023/02/05 05:25:00;;;;;;;0.60;0.60;;;2.00;99.90;;;;;;5074788;28;20488;-81
2023/02/05 05:27:29;;;;;;;1.33;0.87;;;2.00;99.90;;;;;;5074688;28;20476;-81
2023/02/05 05:29:55;;;;;;;0.43;0.43;;;2.10;99.90;;;;;;5074422;28;20961;-81
2023/02/05 05:32:22;;;;;;;0.30;0.30;;;2.10;99.90;;;;;;5074655;28;20449;-81
2023/02/05 05:34:49;;;;;;;0.63;0.43;;;2.10;99.90;;;;;;5074426;28;20452;-80
2023/02/05 05:37:15;;;;;;;0.70;0.70;;;2.20;99.90;;;;;;5074515;28;20484;-81
2023/02/05 05:45:11;;;;;;;4.00;1.83;;;2.20;99.90;;;;;;5074427;28;20463;-80
2023/02/05 05:47:38;;;;;;;0.70;0.70;;;2.20;99.90;;;;;;5074568;28;20466;-81
2023/02/05 05:50:06;;;;;;;0.40;0.40;;;2.20;99.90;;;;;;5074178;28;20441;-81
2023/02/05 05:52:33;;;;;;;0.50;0.50;;;2.20;99.90;;;;;;5074243;28;20450;-80
2023/02/05 05:54:59;;;;;;;1.33;0.60;;;2.20;99.90;;;;;;5074232;28;20449;-80
2023/02/05 05:57:27;;;;;;;1.27;0.93;;;2.20;99.90;;;;;;5074112;28;20469;-80
2023/02/05 05:59:54;;;;;;;0.60;0.40;;;2.20;99.90;;;;;;5074135;28;20438;-80
2023/02/05 06:02:21;;;;;;;0.40;0.40;;;2.20;99.90;;;;;;5073808;28;20441;-80
2023/02/05 06:04:47;;;;;;;1.30;0.53;;;2.20;99.90;;;;;;5073912;28;20481;-80
2023/02/05 06:07:14;;;;;;;1.67;1.57;;;2.20;99.90;;;;;;5073914;28;20461;-80
2023/02/05 06:09:41;;;;;;;0.80;0.53;;;2.20;99.90;;;;;;5074021;28;20533;-81
2023/02/05 06:12:08;;;;;;;0.80;0.60;;;2.10;99.90;;;;;;5073574;28;20945;-80
2023/02/05 06:14:36;;;;;;;0.30;0.30;;;2.20;99.90;;;;;;5073907;28;20464;-80
2023/02/05 06:17:03;;;;;;;0.30;0.30;;;2.10;99.90;;;;;;5073755;28;20472;-80
2023/02/05 06:19:29;;;;;;;0.40;0.40;;;2.10;99.90;;;;;;5073796;28;20456;-81
2023/02/05 06:21:56;;;;;;;1.40;1.30;;;2.10;99.90;;;;;;5073757;28;20444;-80
2023/02/05 06:24:23;;;;;;;1.17;0.60;;;2.20;99.90;;;;;;5073435;28;20944;-81
2023/02/05 06:26:49;;;;;;;1.03;0.60;;;2.20;99.90;;;;;;5073612;28;20461;-81
2023/02/05 06:29:16;;;;;;;0.30;0.30;;;2.20;99.90;;;;;;5073700;28;20442;-80
2023/02/05 06:31:44;;;;;;;0.97;0.67;;;2.30;99.90;;;;;;5073620;28;20445;-80
2023/02/05 06:34:11;;;;;;;1.60;0.60;;;2.30;99.90;;;;;;5073657;28;20442;-80
2023/02/05 06:36:38;;;;;;;0.70;0.70;;;2.40;99.90;;;;;;5073105;28;20477;-81
2023/02/05 06:39:04;;;;;;;0.40;0.40;;;2.40;99.90;;;;;;5073295;28;20940;-80
2023/02/05 06:41:31;;;;;;;0.40;0.40;;;2.40;99.90;;;;;;5073588;28;20448;-81
2023/02/05 06:43:58;;;;;;;0.90;0.50;;;2.50;99.90;;;;;;5073469;28;20470;-80
2023/02/05 06:46:24;;;;;;;0.40;0.40;;;2.50;99.90;;;;;;5072998;28;20489;-81
2023/02/05 06:48:52;;;;;;;0.60;0.37;;;2.50;99.90;;;;;;5073408;28;20450;-81
2023/02/05 06:51:19;;;;;;;0.40;0.40;;;2.60;99.90;;;;;;5073444;28;20442;-81
2023/02/05 06:53:46;;;;;;;0.53;0.40;;;2.60;99.90;;;;;;5073091;28;20945;-80
2023/02/05 06:56:13;;;;;;;0.60;0.50;;;2.60;99.90;;;;;;5073325;28;20469;-81
2023/02/05 06:58:39;;;;;;;0.50;0.50;;;2.60;99.90;;;;;;5073000;28;20941;-80
2023/02/05 07:01:06;;;;;;;0.40;0.30;;;2.60;99.90;;;;;;5072768;28;20456;-80
2023/02/05 07:03:33;;;;;;;0.40;0.30;;;2.70;99.90;;;;;;5072994;28;20940;-80
2023/02/05 07:06:05;;;;;;;2.30;1.03;;;2.70;99.90;;;;;;5073078;28;20489;-80
2023/02/05 07:08:32;;;;;;;1.00;0.50;;;2.80;99.90;;;;;;5073230;28;20446;-80
2023/02/05 07:11:00;;;;;;;0.83;0.60;;;2.80;99.90;;;;;;5074037;28;20472;-80
2023/02/05 07:13:29;;;;;;;0.60;0.60;;;2.80;99.90;;;;;;5072861;28;20820;-80
2023/02/05 07:15:56;;;;;;;0.30;0.30;;;2.90;99.90;;;;;;5072794;28;20461;-80
2023/02/05 07:18:23;;;;;;;0.30;0.30;;;2.80;99.90;;;;;;5073155;28;20449;-81
2023/02/05 07:20:49;;;;;;;0.47;0.47;;;2.90;99.90;;;;;;5073071;28;20449;-80
2023/02/05 07:23:17;;;;;;;0.50;0.50;;;2.90;99.90;;;;;;5073116;28;20445;-80
2023/02/05 07:25:45;;;;;;;0.30;0.30;;;2.90;99.90;;;;;;5072602;28;20486;-80
2023/02/05 07:28:11;;;;;;;0.40;0.33;;;2.90;99.90;;;;;;5072663;28;21019;-81
2023/02/05 07:30:38;;;;;;;0.60;0.60;;;3.00;99.90;;;;;;5073017;28;20456;-81
2023/02/05 07:33:05;;;;;;;1.60;1.30;;;3.00;99.90;;;;;;5073694;28;20804;-81
2023/02/05 07:35:33;;;;;;;0.63;0.43;;;3.10;99.90;;;;;;5072384;28;21063;-81
2023/02/05 07:38:00;;;;;;;0.30;0.20;;;3.10;99.90;;;;;;5072977;28;20540;-81
2023/02/05 07:40:28;;;;;;;0.60;0.30;;;3.20;99.90;;;;;;5072889;28;20453;-81
2023/02/05 07:42:55;;;;;;;0.40;0.40;;;3.20;99.90;;;;;;5072922;28;20453;-81
2023/02/05 07:45:22;;;;;;;0.60;0.60;;;3.10;99.90;;;;;;5072389;28;20846;-81
2023/02/05 07:47:49;;;;;;;0.70;0.70;;;3.20;99.90;;;;;;5072923;28;20847;-80
2023/02/05 07:50:16;;;;;;;0.97;0.50;;;3.10;99.90;;;;;;5072524;28;20887;-80
2023/02/05 07:52:43;;;;;;;0.40;0.30;;;3.20;99.90;;;;;;5072435;28;20827;-80
2023/02/05 07:55:10;;;;;;;0.77;0.77;;;3.20;99.90;;;;;;5072418;28;20449;-80
2023/02/05 07:57:38;;;;;;;0.63;0.63;;;3.10;99.90;;;;;;5072341;28;20472;-80
2023/02/05 08:00:06;;;;;;;0.93;0.40;;;3.00;99.90;;;;;;5072456;28;20449;-80
2023/02/05 08:02:33;;;;;;;0.60;0.53;;;3.10;99.90;;;;;;5072286;28;20453;-80
2023/02/05 08:04:59;;;;;;;0.53;0.53;;;3.10;99.90;;;;;;5072310;28;20461;-80
2023/02/05 08:07:26;;;;;;;0.43;0.43;;;3.10;99.90;;;;;;5072571;28;20509;-80
2023/02/05 08:09:53;;;;;;;0.40;0.40;;;3.20;99.90;;;;;;5072632;28;20449;-80
2023/02/05 08:12:19;;;;;;;0.40;0.40;;;3.20;99.90;;;;;;5072308;28;20446;-80
2023/02/05 08:14:48;;;;;;;0.40;0.30;;;3.30;99.90;;;;;;5076063;28;20457;-80
2023/02/05 08:17:14;;;;;;;2.60;0.77;;;3.30;99.90;;;;;;5076066;28;20496;-80
2023/02/05 08:19:41;;;;;;;0.40;0.40;;;3.30;99.90;;;;;;5076699;28;20449;-80
2023/02/05 08:22:08;;;;;;;0.40;0.30;;;3.40;99.90;;;;;;5077962;28;20445;-81
2023/02/05 08:24:35;;;;;;;0.40;0.30;;;3.50;99.90;;;;;;5076195;28;20445;-81
2023/02/05 08:27:02;;;;;;;5.17;0.73;;;3.50;99.90;;;;;;5076044;28;21057;-81
2023/02/05 08:29:28;;;;;;;0.40;0.40;;;3.50;99.90;;;;;;5076166;28;20448;-80
2023/02/05 08:31:56;;;;;;;0.40;0.30;;;3.50;99.90;;;;;;5076347;28;20461;-81
2023/02/05 08:34:23;;;;;;;0.30;0.30;;;3.50;99.90;;;;;;5075521;28;20460;-80
2023/02/05 08:36:50;;;;;;;4.10;1.03;;;3.60;99.90;;;;;;5075364;28;20486;-81
2023/02/05 08:39:16;;;;;;;0.40;0.40;;;3.60;99.90;;;;;;5075803;28;20449;-80
2023/02/05 08:41:43;;;;;;;0.43;0.43;;;3.70;99.90;;;;;;5075832;28;20437;-80
2023/02/05 08:44:10;;;;;;;0.60;0.40;;;3.70;99.90;;;;;;5075643;28;20453;-81
2023/02/05 08:46:39;;;;;;;0.40;0.40;;;3.80;99.90;;;;;;5075134;28;20496;-81
2023/02/05 08:49:07;;;;;;;0.30;0.30;;;3.80;99.90;;;;;;5075518;28;20468;-80
2023/02/05 08:51:34;;;;;;;0.70;0.70;;;3.80;99.90;;;;;;5075213;28;20972;-81
2023/02/05 08:54:01;;;;;;;0.30;0.30;;;3.80;99.90;;;;;;5075344;28;20502;-80
2023/02/05 08:56:28;;;;;;;1.33;0.57;;;3.70;99.90;;;;;;5075304;28;20457;-81
2023/02/05 08:58:54;;;;;;;1.63;0.63;;;3.80;99.90;;;;;;5075328;28;20446;-80
2023/02/05 09:01:21;;;;;;;0.73;0.30;;;3.80;99.90;;;;;;5075331;28;20765;-81
2023/02/05 09:03:48;;;;;;;0.40;0.40;;;3.80;99.90;;;;;;5074920;28;20441;-80
2023/02/05 09:06:16;;;;;;;0.30;0.30;;;3.90;99.90;;;;;;5075079;28;20488;-80
2023/02/05 09:08:43;;;;;;;0.93;0.53;;;3.90;99.90;;;;;;5074819;28;20456;-80
2023/02/05 09:11:12;;;;;;;0.40;0.30;;;4.00;99.90;;;;;;5075127;28;20516;-79
2023/02/05 09:13:39;;;;;;;0.40;0.40;;;4.00;99.90;;;;;;5075103;28;20454;-79
2023/02/05 09:16:06;;;;;;;1.03;0.67;;;3.90;99.90;;;;;;5074952;28;20472;-79
2023/02/05 09:18:32;;;;;;;1.30;0.50;;;3.80;99.90;;;;;;5074933;28;20452;-80
2023/02/05 09:20:59;;;;;;;0.70;0.30;;;3.80;99.90;;;;;;5074966;28;20453;-78
2023/02/05 09:23:28;;;;;;;1.13;0.77;;;3.80;99.90;;;;;;5074405;28;20445;-79
2023/02/05 09:25:54;;;;;;;1.50;0.40;;;3.80;99.90;;;;;;5074652;28;20488;-78
2023/02/05 09:28:21;;;;;;;1.33;0.70;;;3.80;99.90;;;;;;5074761;28;20453;-78
2023/02/05 09:30:48;;;;;;;0.40;0.30;;;3.70;99.90;;;;;;5074323;28;20821;-79
2023/02/05 09:33:14;;;;;;;4.80;1.27;;;3.70;99.90;;;;;;5074614;28;20449;-79
2023/02/05 09:35:41;;;;;;;0.50;0.30;;;3.70;99.90;;;;;;5074211;28;20849;-79
2023/02/05 09:38:09;;;;;;;0.30;0.30;;;3.60;99.90;;;;;;5074286;28;20952;-79
2023/02/05 09:40:42;;;;;;;0.47;0.47;;;3.50;99.90;;;;;;5074223;28;20956;-79
2023/02/05 09:43:23;;;;;;;0.60;0.30;;;3.40;99.90;;;;;;5074509;28;20541;-79
2023/02/05 09:45:56;;;;;;;0.47;0.33;;;3.40;99.90;;;;;;5074757;28;20493;-79
2023/02/05 09:48:48;;;;;;;0.37;0.33;;;3.40;99.90;;;;;;5074431;28;20433;-79
2023/02/05 09:51:17;;;;;;;0.30;0.30;;;3.40;99.90;;;;;;5067349;28;20463;-79
2023/02/05 09:53:50;;;;;;;0.40;0.40;;;3.40;99.90;;;;;;5074266;28;20518;-79
2023/02/05 09:56:19;;;;;;;0.50;0.50;;;3.40;99.90;;;;;;5074241;28;20462;-79
2023/02/05 09:58:49;;;;;;;0.60;0.60;;;3.40;99.90;;;;;;5073747;28;20448;-79
2023/02/05 10:01:22;;;;;;;6.63;1.00;;;3.50;99.90;;;;;;5073780;28;20944;-79
2023/02/05 10:03:54;;;;;;;0.30;0.30;;;3.40;99.90;;;;;;5074126;28;20422;-79
2023/02/05 10:06:45;;;;;;;1.90;0.83;;;3.50;99.90;;;;;;5073890;28;20485;-79
2023/02/05 10:09:35;;;;;;;0.30;0.20;;;3.50;99.90;;;;;;5074072;28;20493;-79
2023/02/05 10:12:14;;;;;;;0.30;0.30;;;3.60;99.90;;;;;;5071430;28;20456;-79
2023/02/05 10:14:52;;;;;;;0.67;0.60;;;3.60;99.90;;;;;;5073908;28;20430;-79
2023/02/05 10:17:32;;;;;;;2.73;0.50;;;3.60;99.90;;;;;;5073548;28;20468;-79
2023/02/05 10:20:33;;;;;;;0.67;0.67;;;3.60;99.90;;;;;;5073839;28;20426;-79
2023/02/05 10:23:13;;;;;;;0.97;0.37;;;3.70;99.90;;;;;;5073853;28;20433;-79
2023/02/05 10:25:50;;;;;;;0.97;0.67;;;3.70;99.90;;;;;;5073655;28;20471;-79
2023/02/05 10:28:34;;;;;;;0.40;0.40;;;3.70;99.90;;;;;;5073728;28;20791;-80
2023/02/05 10:31:08;;;;;;;0.40;0.40;;;3.70;99.90;;;;;;5073401;28;20434;-79
2023/02/05 10:33:48;;;;;;;0.67;0.67;;;3.70;99.90;;;;;;5073658;28;20438;-80
2023/02/05 10:36:19;;;;;;;1.17;0.40;;;3.70;99.90;;;;;;5072415;28;20488;-80
2023/02/05 10:38:47;;;;;;;0.40;0.40;;;3.70;99.90;;;;;;5073604;28;20434;-79
2023/02/05 10:41:19;;;;;;;0.30;0.30;;;3.70;99.90;;;;;;5073563;28;20834;-79
2023/02/05 10:43:52;;;;;;;0.50;0.37;;;3.70;99.90;;;;;;5073544;28;20434;-80
2023/02/05 10:46:19;;;;;;;0.70;0.70;;;3.80;99.90;;;;;;5073341;28;20481;-79
2023/02/05 10:48:49;;;;;;;0.33;0.33;;;3.90;99.90;;;;;;5073455;28;20430;-79
2023/02/05 10:51:19;;;;;;;0.97;0.80;;;3.90;99.90;;;;;;5073721;28;20460;-79
2023/02/05 10:53:46;;;;;;;0.30;0.30;;;3.90;99.90;;;;;;5073379;28;20426;-79
2023/02/05 10:56:17;;;;;;;0.30;0.20;;;4.00;99.90;;;;;;5072968;28;20977;-79
2023/02/05 10:58:47;;;;;;;0.53;0.43;;;4.00;99.90;;;;;;5072982;28;20830;-79
2023/02/05 11:01:18;;;;;;;0.40;0.33;;;4.10;99.90;;;;;;5073345;28;20438;-79
2023/02/05 11:03:59;;;;;;;0.73;0.40;;;4.20;99.90;;;;;;5073281;28;20430;-79
2023/02/05 11:06:28;;;;;;;0.73;0.37;;;4.30;99.90;;;;;;5072854;28;20492;-79
2023/02/05 11:08:55;;;;;;;0.30;0.30;;;4.40;99.90;;;;;;5073234;28;20458;-79
2023/02/05 11:11:26;;;;;;;0.97;0.60;;;4.20;99.90;;;;;;5072918;28;20956;-79
2023/02/05 11:13:56;;;;;;;0.63;0.33;;;4.20;99.90;;;;;;5073202;28;20429;-79
2023/02/05 11:16:35;;;;;;;0.60;0.60;;;4.30;99.90;;;;;;5073141;28;20461;-79
2023/02/05 11:19:02;;;;;;;0.37;0.30;;;4.30;99.90;;;;;;5073153;28;20426;-79
2023/02/05 11:21:50;;;;;;;0.60;0.47;;;4.30;99.90;;;;;;5073123;28;20453;-79
2023/02/05 11:24:28;;;;;;;1.60;0.60;;;4.30;99.90;;;;;;5073047;28;20452;-79
2023/02/05 11:27:28;;;;;;;0.40;0.33;;;4.40;99.90;;;;;;5073012;28;20591;-79
2023/02/05 11:29:56;;;;;;;0.70;0.40;;;4.40;99.90;;;;;;5070431;28;20466;-79
2023/02/05 11:32:35;;;;;;;0.30;0.30;;;4.40;99.90;;;;;;5072721;28;20441;-79
2023/02/05 11:35:21;;;;;;;0.50;0.50;;;4.40;99.90;;;;;;5072735;28;20485;-79
2023/02/05 11:37:50;;;;;;;0.30;0.20;;;4.40;99.90;;;;;;5072999;28;20512;-79
2023/02/05 11:40:22;;;;;;;0.40;0.30;;;4.40;99.90;;;;;;5072600;28;20941;-80
2023/02/05 11:42:58;;;;;;;0.63;0.43;;;4.40;99.90;;;;;;5072942;28;20438;-79
2023/02/05 11:45:25;;;;;;;0.30;0.20;;;4.50;99.90;;;;;;5072869;28;20444;-79
2023/02/05 11:47:54;;;;;;;0.30;0.30;;;4.60;99.90;;;;;;5075961;28;20531;-79
2023/02/05 11:50:23;;;;;;;0.80;0.30;;;4.60;99.90;;;;;;5076350;28;20941;-79
2023/02/05 11:52:51;;;;;;;2.20;0.73;;;4.60;99.90;;;;;;5076635;28;20499;-78
2023/02/05 11:55:28;;;;;;;0.40;0.40;;;4.60;99.90;;;;;;5076493;28;20472;-79
2023/02/05 11:57:59;;;;;;;0.33;0.23;;;4.60;99.90;;;;;;5076528;28;20433;-79
2023/02/05 12:00:27;;;;;;;0.43;0.37;;;4.60;99.90;;;;;;5076459;28;20452;-79
2023/02/05 12:03:05;;;;;;;1.33;0.83;;;4.60;99.90;;;;;;5076435;28;20477;-79
2023/02/05 12:05:37;;;;;;;0.83;0.63;;;4.60;99.90;;;;;;5076368;28;20785;-79
2023/02/05 12:08:13;;;;;;;0.40;0.40;;;4.50;99.90;;;;;;5076313;28;20469;-79
2023/02/05 12:10:47;;;;;;;1.03;0.60;;;4.50;99.90;;;;;;5076320;28;20429;-79
2023/02/05 12:13:23;;;;;;;0.57;0.40;;;4.60;99.90;;;;;;5076301;28;20433;-79
2023/02/05 12:16:00;;;;;;;0.30;0.30;;;4.50;99.90;;;;;;5076137;28;20464;-78
2023/02/05 12:18:38;;;;;;;0.70;0.50;;;4.50;99.90;;;;;;5076219;28;20429;-78
2023/02/05 12:21:17;;;;;;;2.10;0.60;;;4.60;99.90;;;;;;5076149;28;20433;-78
2023/02/05 12:24:18;;;;;;;0.40;0.40;;;4.70;99.90;;;;;;5075774;28;20444;-78
2023/02/05 12:26:46;;;;;;;0.30;0.30;;;4.70;99.90;;;;;;5075882;28;20496;-78
2023/02/05 12:29:35;;;;;;;0.80;0.60;;;4.70;99.90;;;;;;5075957;28;20445;-78
2023/02/05 12:32:08;;;;;;;0.40;0.40;;;4.70;99.90;;;;;;5075962;28;20433;-78
2023/02/05 12:34:45;;;;;;;2.10;0.53;;;4.70;99.90;;;;;;5075942;28;20438;-78
2023/02/05 12:37:20;;;;;;;0.37;0.30;;;4.60;99.90;;;;;;5076604;28;20453;-78
2023/02/05 12:39:51;;;;;;;0.30;0.30;;;4.60;99.90;;;;;;5075812;28;20417;-78
2023/02/05 12:42:28;;;;;;;0.30;0.27;;;4.60;99.90;;;;;;5075760;28;20430;-78
2023/02/05 12:45:15;;;;;;;0.30;0.20;;;4.60;99.90;;;;;;5075378;28;20902;-78
2023/02/05 12:47:54;;;;;;;0.30;0.30;;;4.60;99.90;;;;;;5062465;28;20507;-78
2023/02/05 12:50:44;;;;;;;0.50;0.50;;;4.60;99.90;;;;;;5075302;28;20434;-78
2023/02/05 12:53:22;;;;;;;0.30;0.30;;;4.60;99.90;;;;;;5075565;28;20445;-78
2023/02/05 12:56:08;;;;;;;0.60;0.50;;;4.60;99.90;;;;;;5075400;28;20477;-78
2023/02/05 12:58:39;;;;;;;0.73;0.43;;;4.60;99.90;;;;;;5074353;28;20430;-78
2023/02/05 13:01:12;;;;;;;0.37;0.37;;;4.60;99.90;;;;;;5075449;28;20429;-78
2023/02/05 13:03:43;;;;;;;0.30;0.30;;;4.60;99.90;;;;;;5075376;28;20437;-78
2023/02/05 13:06:16;;;;;;;0.40;0.30;;;4.60;99.90;;;;;;5075297;28;20465;-78
2023/02/05 13:08:46;;;;;;;1.93;0.83;;;4.60;99.90;;;;;;5075222;28;20470;-78
2023/02/05 13:11:21;;;;;;;0.30;0.20;;;4.60;99.90;;;;;;5075230;28;20436;-78
2023/02/05 13:13:53;;;;;;;0.30;0.30;;;4.60;99.90;;;;;;5075164;28;20433;-78
2023/02/05 13:16:23;;;;;;;0.30;0.30;;;4.60;99.90;;;;;;5074688;28;20515;-77
2023/02/05 13:18:57;;;;;;;0.37;0.30;;;4.60;99.90;;;;;;5075285;28;20441;-78